createdAt,value
2023-03-19T00:00:36.652Z,8.13
2023-03-19T00:03:05.111Z,8.17
2023-03-19T00:05:33.827Z,10.43
2023-03-19T00:08:02.243Z,7.67
2023-03-19T00:10:30.540Z,7.60
2023-03-19T00:12:58.802Z,8.67
2023-03-19T00:15:27.039Z,6.97
2023-03-19T00:17:56.715Z,6.83
2023-03-19T00:20:24.954Z,7.70
2023-03-19T00:22:53.204Z,6.87
2023-03-19T00:25:21.748Z,9.47
2023-03-19T00:27:49.989Z,7.73
2023-03-19T00:30:18.445Z,10.67
2023-03-19T00:32:46.825Z,7.23
2023-03-19T00:35:16.702Z,7.47
2023-03-19T00:37:44.965Z,7.80
2023-03-19T00:40:13.982Z,7.70
2023-03-19T00:42:44.797Z,6.77
2023-03-19T00:45:13.899Z,6.83
2023-03-19T00:47:42.224Z,9.27
2023-03-19T00:50:11.732Z,7.63
2023-03-19T00:52:41.655Z,8.60
2023-03-19T00:55:11.007Z,8.17
2023-03-19T00:57:39.675Z,7.27
2023-03-19T01:00:10.871Z,6.87
2023-03-19T01:02:39.749Z,6.23
2023-03-19T01:05:09.606Z,7.37
2023-03-19T01:07:38.509Z,8.00
2023-03-19T01:10:09.729Z,7.53
2023-03-19T01:12:39.742Z,6.57
2023-03-19T01:15:09.653Z,6.07
2023-03-19T01:17:38.815Z,9.80
2023-03-19T01:20:13.128Z,7.67
2023-03-19T01:22:42.435Z,6.80
2023-03-19T01:25:14.378Z,8.53
2023-03-19T01:27:52.362Z,8.63
2023-03-19T01:30:21.711Z,9.00
2023-03-19T01:33:16.134Z,11.63
2023-03-19T01:36:06.095Z,11.13
2023-03-19T01:38:54.125Z,8.90
2023-03-19T01:41:24.450Z,10.87
2023-03-19T01:43:55.049Z,9.77
2023-03-19T01:46:51.033Z,11.63
2023-03-19T01:49:36.338Z,10.50
2023-03-19T01:52:16.922Z,10.60
2023-03-19T01:55:00.377Z,12.77
2023-03-19T01:57:52.399Z,9.40
2023-03-19T02:00:35.808Z,10.47
2023-03-19T02:03:05.114Z,9.87
2023-03-19T02:05:57.579Z,9.40
2023-03-19T02:08:27.219Z,10.13
2023-03-19T02:11:00.322Z,13.17
2023-03-19T02:13:30.115Z,12.33
2023-03-19T02:15:58.872Z,9.90
2023-03-19T02:18:27.245Z,11.73
2023-03-19T02:21:01.821Z,11.07
2023-03-19T02:23:36.913Z,12.07
2023-03-19T02:26:16.642Z,11.23
2023-03-19T02:28:47.201Z,12.17
2023-03-19T02:31:20.791Z,12.20
2023-03-19T02:33:59.273Z,11.53
2023-03-19T02:36:31.947Z,11.43
2023-03-19T02:39:03.894Z,11.90
2023-03-19T02:41:35.473Z,14.73
2023-03-19T02:44:04.986Z,15.43
2023-03-19T02:46:34.132Z,11.17
2023-03-19T02:49:02.474Z,13.87
2023-03-19T02:51:30.985Z,16.10
2023-03-19T02:54:00.966Z,16.00
2023-03-19T02:56:29.261Z,11.67
2023-03-19T02:58:58.926Z,11.50
2023-03-19T03:01:27.226Z,10.33
2023-03-19T03:03:55.746Z,11.93
2023-03-19T03:06:24.221Z,12.17
2023-03-19T03:08:52.510Z,11.40
2023-03-19T03:11:20.745Z,11.47
2023-03-19T03:13:49.209Z,11.93
2023-03-19T03:16:18.874Z,12.33
2023-03-19T03:18:47.207Z,9.30
2023-03-19T03:21:15.610Z,11.90
2023-03-19T03:23:43.912Z,9.47
2023-03-19T03:26:12.265Z,11.13
2023-03-19T03:28:40.539Z,8.73
2023-03-19T03:31:08.961Z,10.30
2023-03-19T03:33:38.718Z,9.97
2023-03-19T03:36:08.470Z,10.60
2023-03-19T03:38:37.033Z,9.00
2023-03-19T03:41:05.336Z,10.83
2023-03-19T03:43:33.915Z,11.90
2023-03-19T03:46:02.652Z,13.50
2023-03-19T03:48:31.154Z,10.73
2023-03-19T03:51:00.799Z,9.57
2023-03-19T03:53:30.381Z,10.40
2023-03-19T03:55:58.712Z,11.43
2023-03-19T03:58:29.272Z,11.00
2023-03-19T04:00:57.700Z,13.07
2023-03-19T04:03:27.235Z,13.30
2023-03-19T04:05:56.033Z,11.50
2023-03-19T04:08:25.830Z,10.07
2023-03-19T04:10:54.180Z,11.73
2023-03-19T04:13:22.428Z,10.93
2023-03-19T04:15:50.886Z,11.93
2023-03-19T04:18:24.804Z,11.37
2023-03-19T04:20:53.520Z,10.33
2023-03-19T04:23:21.758Z,13.30
2023-03-19T04:25:51.931Z,12.70
2023-03-19T04:28:20.293Z,10.87
2023-03-19T04:30:48.716Z,13.13
2023-03-19T04:33:18.572Z,13.03
2023-03-19T04:35:47.108Z,14.10
2023-03-19T04:38:15.385Z,11.13
2023-03-19T04:40:50.734Z,9.33
2023-03-19T04:43:23.933Z,11.40
2023-03-19T04:45:53.418Z,11.83
2023-03-19T04:48:23.359Z,12.23
2023-03-19T04:50:57.012Z,14.30
2023-03-19T04:53:25.740Z,14.40
2023-03-19T04:55:54.109Z,15.43
2023-03-19T04:58:24.211Z,12.60
2023-03-19T05:00:59.104Z,9.73
2023-03-19T05:03:47.334Z,11.13
2023-03-19T05:06:16.959Z,9.27
2023-03-19T05:08:45.900Z,18.03
2023-03-19T05:11:15.402Z,13.03
2023-03-19T05:13:59.613Z,10.07
2023-03-19T05:16:34.801Z,11.03
2023-03-19T05:19:03.566Z,10.10
2023-03-19T05:21:34.174Z,11.87
2023-03-19T05:24:02.813Z,13.27
2023-03-19T05:26:35.669Z,10.63
2023-03-19T05:29:14.772Z,15.87
2023-03-19T05:32:03.368Z,14.33
2023-03-19T05:34:33.164Z,14.50
2023-03-19T05:37:01.734Z,19.13
2023-03-19T05:39:29.975Z,13.03
2023-03-19T05:42:03.053Z,14.03
2023-03-19T05:44:33.373Z,10.63
2023-03-19T05:47:09.853Z,14.57
2023-03-19T05:49:40.700Z,10.87
2023-03-19T05:52:09.315Z,13.57
2023-03-19T05:54:38.725Z,11.50
2023-03-19T05:57:29.893Z,10.47
2023-03-19T06:00:10.471Z,13.57
2023-03-19T06:02:39.360Z,12.97
2023-03-19T06:05:29.119Z,18.13
2023-03-19T06:08:02.072Z,11.80
2023-03-19T06:10:48.972Z,15.37
2023-03-19T06:13:17.908Z,14.83
2023-03-19T06:15:56.312Z,11.97
2023-03-19T06:18:36.653Z,12.33
2023-03-19T06:21:10.343Z,13.00
2023-03-19T06:23:39.221Z,7.87
2023-03-19T06:26:09.257Z,9.17
2023-03-19T06:28:45.363Z,12.60
2023-03-19T06:31:17.352Z,9.07
2023-03-19T06:34:11.923Z,10.63
2023-03-19T06:36:42.883Z,11.23
2023-03-19T06:39:14.228Z,7.50
2023-03-19T06:41:42.513Z,12.10
2023-03-19T06:44:15.782Z,10.50
2023-03-19T06:46:45.478Z,10.80
2023-03-19T06:49:13.727Z,9.87
2023-03-19T06:51:41.962Z,9.00
2023-03-19T06:54:10.309Z,9.77
2023-03-19T06:56:39.026Z,8.77
2023-03-19T06:59:07.419Z,8.13
2023-03-19T07:01:36.000Z,10.27
2023-03-19T07:04:05.623Z,8.90
2023-03-19T07:06:34.679Z,12.80
2023-03-19T07:09:03.453Z,9.80
2023-03-19T07:11:33.802Z,14.60
2023-03-19T07:14:03.609Z,9.20
2023-03-19T07:16:32.290Z,12.93
2023-03-19T07:19:05.072Z,9.70
2023-03-19T07:21:33.358Z,14.13
2023-03-19T07:24:01.622Z,11.00
2023-03-19T07:26:29.893Z,8.23
2023-03-19T07:28:58.214Z,12.83
2023-03-19T07:31:26.480Z,11.60
2023-03-19T07:33:54.775Z,11.00
2023-03-19T07:36:24.624Z,10.10
2023-03-19T07:38:52.967Z,12.73
2023-03-19T07:41:21.389Z,13.43
2023-03-19T07:43:49.621Z,8.90
2023-03-19T07:46:18.162Z,12.53
2023-03-19T07:48:46.651Z,15.53
2023-03-19T07:51:14.913Z,15.73
2023-03-19T07:53:44.776Z,14.77
2023-03-19T07:56:13.744Z,14.63
2023-03-19T07:58:42.618Z,15.20
2023-03-19T08:01:10.854Z,10.80
2023-03-19T08:03:39.676Z,13.00
2023-03-19T08:06:08.038Z,13.80
2023-03-19T08:08:36.399Z,12.63
2023-03-19T08:11:06.951Z,13.50
2023-03-19T08:13:35.195Z,12.40
2023-03-19T08:16:03.556Z,10.40
2023-03-19T08:18:32.406Z,12.00
2023-03-19T08:21:00.722Z,12.30
2023-03-19T08:23:29.146Z,16.00
2023-03-19T08:25:57.426Z,11.13
2023-03-19T08:28:27.143Z,11.13
2023-03-19T08:30:56.132Z,12.37
2023-03-19T08:33:24.901Z,11.90
2023-03-19T08:35:53.420Z,13.33
2023-03-19T08:38:21.732Z,11.97
2023-03-19T08:40:49.978Z,13.23
2023-03-19T08:43:18.221Z,17.27
2023-03-19T08:45:47.875Z,23.00
2023-03-19T08:48:16.115Z,15.67
2023-03-19T08:50:44.329Z,13.30
2023-03-19T08:53:12.555Z,15.43
2023-03-19T08:55:41.690Z,13.60
2023-03-19T08:58:09.964Z,17.63
2023-03-19T09:00:39.145Z,16.00
2023-03-19T09:03:08.762Z,17.10
2023-03-19T09:05:37.384Z,16.77
2023-03-19T09:08:05.961Z,15.60
2023-03-19T09:10:34.822Z,14.93
2023-03-19T09:13:03.296Z,19.13
2023-03-19T09:15:31.904Z,18.27
2023-03-19T09:18:00.687Z,16.13
2023-03-19T09:20:30.393Z,21.63
2023-03-19T09:22:58.594Z,23.00
2023-03-19T09:25:26.825Z,19.63
2023-03-19T09:27:55.298Z,23.70
2023-03-19T09:30:23.741Z,26.33
2023-03-19T09:32:52.243Z,21.43
2023-03-19T09:35:20.566Z,28.67
2023-03-19T09:37:51.996Z,22.07
2023-03-19T09:40:25.965Z,27.87
2023-03-19T09:43:01.845Z,30.23
2023-03-19T09:45:30.744Z,32.03
2023-03-19T09:48:04.297Z,33.97
2023-03-19T09:50:34.776Z,31.30
2023-03-19T09:53:11.978Z,29.63
2023-03-19T09:55:44.287Z,35.67
2023-03-19T09:58:16.624Z,32.47
2023-03-19T10:00:48.755Z,29.80
2023-03-19T10:03:42.759Z,37.13
2023-03-19T10:06:27.176Z,33.57
2023-03-19T10:09:09.803Z,32.07
2023-03-19T10:11:52.762Z,35.67
2023-03-19T10:14:45.349Z,28.53
2023-03-19T10:17:18.281Z,26.03
2023-03-19T10:19:49.896Z,29.93
2023-03-19T10:22:23.081Z,28.87
2023-03-19T10:24:55.299Z,29.83
2023-03-19T10:27:26.973Z,27.30
2023-03-19T10:30:22.282Z,33.33
2023-03-19T10:32:55.746Z,29.30
2023-03-19T10:35:40.767Z,28.40
2023-03-19T10:38:20.026Z,32.10
2023-03-19T10:41:06.048Z,28.50
2023-03-19T10:43:35.553Z,27.53
2023-03-19T10:46:03.839Z,24.67
2023-03-19T10:48:33.497Z,25.30
2023-03-19T10:51:05.538Z,26.53
2023-03-19T10:53:35.534Z,25.50
2023-03-19T10:56:07.169Z,26.07
2023-03-19T10:58:37.703Z,26.80
2023-03-19T11:01:08.245Z,24.87
2023-03-19T11:03:39.204Z,27.87
2023-03-19T11:06:18.145Z,20.75
2023-03-19T11:08:55.355Z,25.27
2023-03-19T11:11:37.442Z,19.47
2023-03-19T11:14:17.020Z,24.15
2023-03-19T11:16:56.667Z,19.87
2023-03-19T11:19:26.430Z,18.73
2023-03-19T11:22:03.729Z,21.35
2023-03-19T11:24:37.469Z,16.93
2023-03-19T11:27:07.983Z,17.37
2023-03-19T11:29:41.749Z,22.45
2023-03-19T11:32:22.590Z,22.00
2023-03-19T11:34:59.024Z,21.67
2023-03-19T11:37:34.685Z,20.90
2023-03-19T11:40:13.823Z,22.77
2023-03-19T11:43:21.914Z,22.70
2023-03-19T11:46:01.579Z,21.43
2023-03-19T11:48:41.771Z,19.37
2023-03-19T11:51:15.420Z,25.00
2023-03-19T11:53:54.468Z,22.20
2023-03-19T11:56:37.640Z,21.03
2023-03-19T11:59:19.006Z,18.83
2023-03-19T12:02:25.119Z,22.50
2023-03-19T12:05:07.779Z,20.75
2023-03-19T12:07:42.490Z,22.50
2023-03-19T12:10:29.296Z,19.37
2023-03-19T12:13:09.511Z,20.67
2023-03-19T12:15:48.306Z,18.75
2023-03-19T12:18:29.312Z,18.40
2023-03-19T12:21:08.586Z,18.10
2023-03-19T12:23:52.204Z,21.92
2023-03-19T12:26:28.399Z,19.70
2023-03-19T12:29:05.379Z,16.98
2023-03-19T12:31:49.306Z,17.55
2023-03-19T12:34:30.586Z,18.00
2023-03-19T12:37:09.947Z,14.82
2023-03-19T12:39:44.930Z,15.10
2023-03-19T12:42:18.974Z,14.45
2023-03-19T12:44:52.277Z,15.68
2023-03-19T12:47:26.198Z,14.65
2023-03-19T12:50:02.043Z,14.80
2023-03-19T12:52:36.766Z,14.13
2023-03-19T12:55:13.909Z,12.90
2023-03-19T12:57:48.049Z,12.57
2023-03-19T13:00:20.891Z,13.52
2023-03-19T13:02:56.030Z,13.90
2023-03-19T13:05:33.866Z,14.07
2023-03-19T13:08:08.168Z,15.18
2023-03-19T13:10:36.976Z,10.40
2023-03-19T13:13:27.115Z,7.10
2023-03-19T13:16:00.401Z,10.07
2023-03-19T13:18:38.965Z,8.97
2023-03-19T13:21:23.054Z,9.37
2023-03-19T13:23:59.856Z,8.60
2023-03-19T13:26:28.752Z,8.70
2023-03-19T13:29:02.737Z,10.43
2023-03-19T13:31:35.736Z,8.97
2023-03-19T13:34:06.998Z,8.73
2023-03-19T13:36:40.244Z,8.90
2023-03-19T13:39:16.388Z,6.30
2023-03-19T13:41:54.895Z,7.77
2023-03-19T13:44:40.679Z,7.53
2023-03-19T13:47:40.785Z,7.67
2023-03-19T13:50:24.316Z,5.37
2023-03-19T13:52:57.971Z,9.10
2023-03-19T13:55:33.132Z,6.83
2023-03-19T13:58:17.832Z,6.17
2023-03-19T14:01:00.783Z,5.03
2023-03-19T14:03:32.136Z,5.93
2023-03-19T14:06:01.764Z,3.80
2023-03-19T14:08:42.815Z,6.63
2023-03-19T14:11:12.657Z,3.70
2023-03-19T14:13:43.472Z,5.20
2023-03-19T14:16:18.236Z,4.67
2023-03-19T14:18:46.918Z,3.87
2023-03-19T14:21:21.854Z,3.13
2023-03-19T14:23:57.725Z,3.93
2023-03-19T14:26:29.369Z,5.60
2023-03-19T14:29:02.549Z,4.77
2023-03-19T14:31:38.252Z,4.70
2023-03-19T14:34:20.197Z,4.83
2023-03-19T14:36:57.213Z,5.60
2023-03-19T14:39:29.271Z,3.70
2023-03-19T14:42:04.198Z,6.90
2023-03-19T14:45:19.529Z,5.83
2023-03-19T14:48:25.260Z,4.50
2023-03-19T14:51:19.984Z,4.63
2023-03-19T14:53:51.894Z,5.47
2023-03-19T14:56:25.023Z,6.83
2023-03-19T14:58:55.708Z,9.60
2023-03-19T15:01:27.035Z,5.13
2023-03-19T15:03:57.335Z,12.83
2023-03-19T15:06:26.304Z,19.70
2023-03-19T15:08:54.645Z,8.77
2023-03-19T15:11:52.377Z,11.13
2023-03-19T15:14:51.586Z,11.07
2023-03-19T15:17:24.732Z,10.67
2023-03-19T15:19:55.593Z,10.47
2023-03-19T15:22:31.278Z,10.67
2023-03-19T15:25:07.180Z,11.20
2023-03-19T15:27:37.014Z,9.23
2023-03-19T15:30:21.471Z,10.57
2023-03-19T15:33:04.624Z,11.13
2023-03-19T15:35:45.157Z,11.27
2023-03-19T15:38:17.931Z,7.27
2023-03-19T15:40:46.815Z,8.97
2023-03-19T15:43:20.454Z,8.37
2023-03-19T15:45:51.792Z,5.70
2023-03-19T15:48:23.588Z,8.83
2023-03-19T15:50:56.787Z,11.30
2023-03-19T15:53:28.552Z,9.53
2023-03-19T15:55:57.455Z,7.33
2023-03-19T15:58:30.878Z,7.90
2023-03-19T16:01:02.140Z,9.53
2023-03-19T16:03:35.137Z,7.80
2023-03-19T16:06:06.364Z,7.17
2023-03-19T16:08:34.839Z,7.60
2023-03-19T16:11:17.311Z,11.07
2023-03-19T16:13:58.381Z,7.37
2023-03-19T16:16:30.715Z,11.50
2023-03-19T16:18:59.799Z,7.73
2023-03-19T16:21:35.444Z,10.87
2023-03-19T16:24:05.950Z,10.20
2023-03-19T16:26:39.658Z,11.70
2023-03-19T16:29:20.536Z,9.03
2023-03-19T16:31:52.874Z,6.90
2023-03-19T16:34:32.263Z,7.53
2023-03-19T16:37:01.538Z,7.07
2023-03-19T16:39:37.320Z,6.23
2023-03-19T16:42:29.412Z,5.03
2023-03-19T16:45:03.121Z,3.43
2023-03-19T16:47:31.477Z,3.70
2023-03-19T16:49:59.786Z,4.10
2023-03-19T16:52:28.124Z,5.30
2023-03-19T16:54:58.067Z,7.00
2023-03-19T16:57:26.444Z,5.00
2023-03-19T16:59:54.754Z,10.17
2023-03-19T17:02:24.372Z,6.60
2023-03-19T17:04:52.657Z,6.40
2023-03-19T17:07:21.020Z,9.17
2023-03-19T17:09:49.409Z,8.97
2023-03-19T17:12:18.542Z,9.70
2023-03-19T17:14:49.175Z,8.53
2023-03-19T17:17:20.203Z,7.17
2023-03-19T17:19:51.470Z,6.27
2023-03-19T17:22:19.877Z,14.73
2023-03-19T17:24:48.355Z,10.27
2023-03-19T17:27:16.771Z,13.30
2023-03-19T17:29:45.316Z,9.33
2023-03-19T17:32:18.869Z,9.97
2023-03-19T17:34:47.842Z,8.80
2023-03-19T17:37:17.498Z,9.87
2023-03-19T17:39:46.111Z,10.80
2023-03-19T17:42:22.943Z,11.07
2023-03-19T17:44:52.098Z,15.23
2023-03-19T17:47:20.682Z,16.40
2023-03-19T17:49:48.983Z,11.43
2023-03-19T17:52:20.118Z,8.90
2023-03-19T17:54:48.405Z,14.00
2023-03-19T17:57:17.904Z,11.23
2023-03-19T17:59:46.225Z,10.03
2023-03-19T18:02:25.798Z,8.13
2023-03-19T18:04:54.294Z,7.97
2023-03-19T18:07:23.936Z,12.73
2023-03-19T18:09:52.257Z,11.80
2023-03-19T18:12:20.522Z,14.13
2023-03-19T18:14:48.768Z,13.77
2023-03-19T18:17:18.619Z,11.43
2023-03-19T18:19:50.669Z,9.97
2023-03-19T18:22:20.267Z,14.93
2023-03-19T18:24:49.962Z,11.27
2023-03-19T18:27:18.236Z,13.93
2023-03-19T18:29:46.724Z,13.17
2023-03-19T18:32:20.017Z,13.37
2023-03-19T18:34:48.346Z,10.57
2023-03-19T18:37:18.328Z,13.03
2023-03-19T18:39:46.823Z,13.83
2023-03-19T18:42:16.678Z,11.67
2023-03-19T18:44:45.191Z,14.00
2023-03-19T18:47:15.768Z,12.13
2023-03-19T18:49:44.967Z,12.60
2023-03-19T18:52:18.669Z,14.97
2023-03-19T18:54:47.812Z,16.73
2023-03-19T18:57:18.112Z,14.10
2023-03-19T18:59:47.035Z,11.20
2023-03-19T19:02:32.505Z,15.60
2023-03-19T19:05:01.064Z,12.17
2023-03-19T19:07:29.331Z,11.07
2023-03-19T19:09:57.664Z,11.53
2023-03-19T19:12:28.251Z,10.03
2023-03-19T19:14:58.720Z,12.17
2023-03-19T19:17:29.618Z,9.20
2023-03-19T19:19:57.896Z,10.90
2023-03-19T19:22:26.179Z,10.63
2023-03-19T19:24:54.576Z,10.93
2023-03-19T19:27:25.878Z,10.93
2023-03-19T19:29:56.016Z,11.07
2023-03-19T19:32:36.454Z,8.33
2023-03-19T19:35:06.851Z,9.13
2023-03-19T19:37:35.352Z,8.87
2023-03-19T19:40:03.669Z,11.57
2023-03-19T19:42:31.964Z,13.60
2023-03-19T19:45:03.450Z,12.30
2023-03-19T19:47:32.538Z,13.10
2023-03-19T19:50:00.865Z,11.73
2023-03-19T19:52:31.644Z,17.30
2023-03-19T19:55:00.358Z,12.03
2023-03-19T19:57:28.602Z,12.07
2023-03-19T19:59:56.910Z,13.93
2023-03-19T20:02:28.482Z,11.63
2023-03-19T20:04:57.115Z,14.57
2023-03-19T20:07:25.821Z,15.43
2023-03-19T20:09:54.205Z,16.17
2023-03-19T20:12:24.052Z,15.13
2023-03-19T20:14:52.724Z,19.50
2023-03-19T20:17:22.010Z,16.93
2023-03-19T20:19:51.878Z,20.77
2023-03-19T20:22:20.363Z,25.83
2023-03-19T20:24:51.338Z,17.57
2023-03-19T20:27:23.068Z,18.83
2023-03-19T20:29:53.656Z,18.63
2023-03-19T20:32:28.528Z,17.90
2023-03-19T20:34:58.224Z,18.10
2023-03-19T20:37:26.605Z,20.60
2023-03-19T20:39:55.068Z,13.90
2023-03-19T20:42:46.734Z,17.60
2023-03-19T20:45:20.971Z,19.37
2023-03-19T20:47:50.450Z,19.50
2023-03-19T20:50:23.825Z,18.27
2023-03-19T20:52:52.714Z,16.87
2023-03-19T20:55:23.171Z,17.03
2023-03-19T20:57:52.372Z,18.73
2023-03-19T21:00:24.419Z,20.43
2023-03-19T21:02:53.969Z,19.73
2023-03-19T21:05:25.078Z,18.27
2023-03-19T21:07:54.501Z,18.43
2023-03-19T21:10:28.877Z,17.93
2023-03-19T21:12:57.280Z,16.80
2023-03-19T21:15:25.816Z,17.77
2023-03-19T21:17:54.323Z,17.13
2023-03-19T21:20:27.323Z,16.97
2023-03-19T21:22:59.803Z,18.03
2023-03-19T21:25:30.799Z,17.40
2023-03-19T21:28:03.327Z,19.13
2023-03-19T21:30:31.724Z,17.70
2023-03-19T21:33:01.095Z,17.50
2023-03-19T21:35:30.842Z,20.23
2023-03-19T21:37:59.059Z,15.03
2023-03-19T21:40:30.771Z,19.20
2023-03-19T21:43:03.032Z,19.60
2023-03-19T21:45:33.942Z,18.43
2023-03-19T21:48:19.673Z,20.47
2023-03-19T21:50:50.168Z,19.63
2023-03-19T21:53:18.485Z,18.50
2023-03-19T21:55:46.989Z,18.80
2023-03-19T21:58:17.401Z,16.77
2023-03-19T22:00:46.190Z,18.53
2023-03-19T22:03:18.933Z,17.77
2023-03-19T22:05:49.907Z,20.27
2023-03-19T22:08:20.728Z,18.63
2023-03-19T22:10:53.445Z,21.43
2023-03-19T22:13:24.379Z,19.27
2023-03-19T22:15:55.640Z,20.40
2023-03-19T22:18:23.945Z,23.47
2023-03-19T22:20:54.121Z,17.37
2023-03-19T22:23:22.522Z,17.37
2023-03-19T22:25:52.223Z,18.27
2023-03-19T22:28:25.726Z,19.73
2023-03-19T22:30:54.287Z,19.80
2023-03-19T22:33:24.661Z,19.70
2023-03-19T22:35:55.277Z,19.83
2023-03-19T22:38:24.464Z,17.70
2023-03-19T22:40:55.745Z,21.50
2023-03-19T22:43:29.124Z,19.10
2023-03-19T22:46:00.854Z,19.00
2023-03-19T22:48:29.526Z,21.07
2023-03-19T22:50:59.118Z,20.17
2023-03-19T22:53:29.427Z,18.43
2023-03-19T22:55:57.992Z,23.00
2023-03-19T22:58:26.863Z,20.47
2023-03-19T23:00:56.162Z,21.50
2023-03-19T23:03:26.318Z,25.77
2023-03-19T23:05:57.466Z,21.53
2023-03-19T23:08:27.762Z,24.30
2023-03-19T23:10:56.549Z,23.47
2023-03-19T23:13:24.900Z,27.20
2023-03-19T23:15:56.641Z,21.93
2023-03-19T23:18:29.962Z,23.03
2023-03-19T23:20:58.950Z,22.57
2023-03-19T23:23:29.515Z,23.80
2023-03-19T23:25:58.400Z,21.10
2023-03-19T23:28:31.825Z,23.50
2023-03-19T23:31:02.843Z,22.73
2023-03-19T23:33:31.258Z,21.53
2023-03-19T23:35:59.830Z,24.57
2023-03-19T23:38:29.746Z,20.67
2023-03-19T23:40:58.263Z,22.57
2023-03-19T23:43:28.817Z,26.57
2023-03-19T23:45:58.305Z,21.80
2023-03-19T23:48:32.429Z,25.27
2023-03-19T23:51:00.774Z,22.63
2023-03-19T23:53:30.946Z,24.47
2023-03-19T23:56:02.919Z,22.13
2023-03-19T23:58:40.176Z,21.97
